Time;durP1;ratioP1;P1;durP2;ratioP2;P2;SDS_P1;SDS_P2;PMS_P1;PMS_P2;Temp;Humidity;BMP_temperature;BMP_pressure;BME280_temperature;BME280_humidity;BME280_pressure;Samples;Min_cycle;Max_cycle;Signal;HPM_P1;HPM_P2
2024/04/16 00:06:02;;;;;;;5.78;1.52;;;;;;;;;;5155710;22;88624;-90
2024/04/16 00:13:12;;;;;;;7.85;1.20;;;;;;;;;;5360570;22;89067;-86
2024/04/16 00:16:16;;;;;;;5.47;1.17;;;;;;;;;;5021403;22;91013;31
2024/04/16 00:19:31;;;;;;;5.43;1.20;;;;;;;;;;5125819;22;88326;-85
2024/04/16 00:22:07;;;;;;;;;;;;;;;;;;4966271;28;94098;-83
2024/04/16 00:25:34;;;;;;;9.95;1.25;;;;;;;;;;5106067;27;87693;-85
2024/04/16 00:29:00;;;;;;;7.10;1.30;;;;;;;;;;5752067;22;89711;-84
2024/04/16 00:35:56;;;;;;;9.02;1.17;;;;;;;;;;5997194;22;89910;-86
2024/04/16 00:38:40;;;;;;;7.80;1.40;;;;;;;;;;5080192;27;89793;-86
2024/04/16 00:44:57;;;;;;;6.82;1.17;;;;;;;;;;5377546;22;93186;-85
2024/04/16 00:57:21;;;;;;;5.45;1.20;;;;;;;;;;5989537;22;90224;-86
2024/04/16 01:14:41;;;;;;;6.43;1.02;;;;;;;;;;5584767;22;91352;-86
2024/04/16 01:33:43;;;;;;;4.88;0.88;;;;;;;;;;5111648;27;88100;-86
2024/04/16 01:36:34;;;;;;;6.80;1.13;;;;;;;;;;5130877;27;90772;-86
2024/04/16 01:42:46;;;;;;;4.05;0.95;;;;;;;;;;5189969;22;88252;-88
2024/04/16 01:48:42;;;;;;;5.32;0.90;;;;;;;;;;5178309;22;88238;-88
2024/04/16 01:51:52;;;;;;;5.15;1.40;;;;;;;;;;5158354;22;89257;-86
2024/04/16 01:54:39;;;;;;;4.35;1.00;;;;;;;;;;5048825;27;90447;-88
2024/04/16 02:41:13;;;;;;;3.33;0.90;;;;;;;;;;5352335;22;88368;-89
2024/04/16 02:44:15;;;;;;;2.95;0.70;;;;;;;;;;5631191;22;89230;31
2024/04/16 02:46:54;;;;;;;2.30;0.63;;;;;;;;;;4963019;27;89475;-86
2024/04/16 03:09:51;;;;;;;4.85;0.80;;;;;;;;;;5286743;22;92094;-86
2024/04/16 03:13:11;;;;;;;2.78;0.60;;;;;;;;;;5076849;27;91497;-85
2024/04/16 03:29:14;;;;;;;3.33;0.70;;;;;;;;;;5274320;22;93904;-82
2024/04/16 03:32:17;;;;;;;2.20;0.90;;;;;;;;;;4985283;27;91057;-82
2024/04/16 03:35:44;;;;;;;3.83;0.85;;;;;;;;;;4999472;27;93945;-82
2024/04/16 03:41:41;;;;;;;;;;;;;;;;;;5008492;27;90803;-86
2024/04/16 04:28:04;;;;;;;2.30;0.70;;;;;;;;;;6067855;22;96566;31
2024/04/16 04:34:17;;;;;;;2.63;0.70;;;;;;;;;;5725083;22;94323;-88
2024/04/16 04:40:45;;;;;;;1.95;0.60;;;;;;;;;;4981642;28;95264;-89
2024/04/16 04:43:49;;;;;;;1.38;0.60;;;;;;;;;;4967971;27;91772;-88
2024/04/16 04:46:38;;;;;;;1.73;0.50;;;;;;;;;;5011075;28;97765;-82
2024/04/16 04:49:21;;;;;;;2.45;0.70;;;;;;;;;;5036981;27;90453;-85
2024/04/16 04:52:20;;;;;;;3.75;0.57;;;;;;;;;;5005904;28;93654;-84
2024/04/16 04:55:26;;;;;;;1.40;0.43;;;;;;;;;;5028919;28;92723;-86
2024/04/16 04:58:39;;;;;;;5.65;0.65;;;;;;;;;;5144378;22;94881;-84
2024/04/16 05:01:17;;;;;;;1.48;0.60;;;;;;;;;;5071096;27;95534;-82
2024/04/16 05:03:54;;;;;;;2.45;0.60;;;;;;;;;;5097027;27;91924;-86
2024/04/16 05:06:29;;;;;;;2.65;0.63;;;;;;;;;;5080233;27;90882;-80
2024/04/16 05:08:56;;;;;;;2.33;0.60;;;;;;;;;;5094889;27;92415;-81
2024/04/16 05:11:27;;;;;;;7.13;0.77;;;;;;;;;;5100988;27;91483;-82
2024/04/16 05:14:01;;;;;;;2.65;0.90;;;;;;;;;;5067399;27;91381;-83
2024/04/16 05:16:29;;;;;;;2.63;0.73;;;;;;;;;;5106666;27;91239;-81
2024/04/16 05:18:58;;;;;;;3.95;0.77;;;;;;;;;;5073431;27;90798;-83
2024/04/16 05:21:26;;;;;;;7.07;0.70;;;;;;;;;;5071679;27;93453;-84
2024/04/16 05:23:57;;;;;;;3.90;0.68;;;;;;;;;;5035965;27;93885;-82
2024/04/16 05:26:31;;;;;;;2.25;0.60;;;;;;;;;;5119611;27;91239;-82
2024/04/16 05:28:58;;;;;;;3.50;0.50;;;;;;;;;;5073991;27;94148;-82
2024/04/16 05:31:27;;;;;;;3.85;0.70;;;;;;;;;;5042113;27;91796;-83
2024/04/16 05:33:55;;;;;;;2.53;0.60;;;;;;;;;;5016070;27;91059;-84
2024/04/16 05:36:28;;;;;;;2.28;0.63;;;;;;;;;;5092899;27;91507;-82
2024/04/16 05:39:10;;;;;;;3.40;0.73;;;;;;;;;;5100173;27;94591;-87
2024/04/16 05:42:03;;;;;;;4.13;0.70;;;;;;;;;;5886618;22;93846;-88
2024/04/16 05:45:31;;;;;;;3.42;0.70;;;;;;;;;;4971942;28;92199;-86
2024/04/16 06:11:18;;;;;;;2.72;0.70;;;;;;;;;;5042123;27;97300;-84
2024/04/16 06:17:39;;;;;;;7.07;1.10;;;;;;;;;;5107671;22;93005;-79
2024/04/16 06:20:31;;;;;;;3.15;0.93;;;;;;;;;;5055280;27;91632;-81
2024/04/16 06:29:31;;;;;;;4.05;0.88;;;;;;;;;;5456119;22;94305;-82
2024/04/16 06:32:11;;;;;;;5.82;1.00;;;;;;;;;;5054069;27;91629;-83
2024/04/16 06:34:46;;;;;;;7.32;0.88;;;;;;;;;;5096288;27;91178;-78
2024/04/16 06:44:12;;;;;;;3.95;0.75;;;;;;;;;;4978315;27;95358;-82
2024/04/16 06:46:43;;;;;;;3.53;0.88;;;;;;;;;;5136282;22;94342;-82
2024/04/16 06:49:27;;;;;;;3.88;0.82;;;;;;;;;;5046080;27;91406;-82
2024/04/16 06:52:34;;;;;;;;;;;;;;;;;;;;;
2024/04/16 06:55:36;;;;;;;2.97;0.70;;;;;;;;;;5552933;22;94500;-86
2024/04/16 06:58:33;;;;;;;4.00;0.80;;;;;;;;;;5180886;22;95680;-83
2024/04/16 07:01:26;;;;;;;3.67;0.70;;;;;;;;;;5018889;28;91707;-83
2024/04/16 07:08:06;;;;;;;4.00;0.80;;;;;;;;;;5255651;22;93576;-85
2024/04/16 07:10:46;;;;;;;3.88;0.90;;;;;;;;;;5053704;27;90571;-83
2024/04/16 07:13:15;;;;;;;3.60;1.00;;;;;;;;;;5052440;27;94051;-85
2024/04/16 07:16:09;;;;;;;3.05;0.65;;;;;;;;;;5020345;27;98025;-82
2024/04/16 07:18:49;;;;;;;3.42;0.75;;;;;;;;;;5062503;27;91185;-83
2024/04/16 07:22:01;;;;;;;3.88;0.80;;;;;;;;;;5323712;22;94960;-82
2024/04/16 07:24:33;;;;;;;2.63;0.88;;;;;;;;;;5039184;27;93032;-83
2024/04/16 07:27:06;;;;;;;4.38;1.08;;;;;;;;;;5035817;27;90994;-81
2024/04/16 07:29:39;;;;;;;4.75;0.80;;;;;;;;;;5059994;27;95063;-79
2024/04/16 07:32:10;;;;;;;3.80;1.05;;;;;;;;;;5040783;27;92274;-81
2024/04/16 07:34:48;;;;;;;6.47;1.00;;;;;;;;;;5090402;27;90903;-83
2024/04/16 07:37:24;;;;;;;3.90;0.88;;;;;;;;;;5043292;27;91768;-83
2024/04/16 07:40:14;;;;;;;4.60;0.82;;;;;;;;;;5045222;28;92317;-84
2024/04/16 07:43:27;;;;;;;4.93;0.82;;;;;;;;;;5021818;28;93409;-83
2024/04/16 07:45:55;;;;;;;3.28;0.90;;;;;;;;;;5035682;27;92224;-81
2024/04/16 07:48:29;;;;;;;7.78;1.02;;;;;;;;;;5051019;27;93496;-79
2024/04/16 07:50:56;;;;;;;;;;;;;;;;;;5098406;27;91635;-79
2024/04/16 07:53:24;;;;;;;5.88;1.00;;;;;;;;;;5072335;27;90591;-79
2024/04/16 07:55:52;;;;;;;6.65;0.98;;;;;;;;;;5042217;27;94162;-80
2024/04/16 07:58:19;;;;;;;3.55;0.82;;;;;;;;;;5044330;27;90973;-81
2024/04/16 08:00:47;;;;;;;4.93;0.98;;;;;;;;;;5044258;27;90676;-80
2024/04/16 08:03:14;;;;;;;5.72;1.00;;;;;;;;;;5045762;27;91140;-81
2024/04/16 08:05:42;;;;;;;5.35;0.80;;;;;;;;;;5094971;27;95878;-80
2024/04/16 08:08:13;;;;;;;2.67;0.75;;;;;;;;;;5045525;27;91252;-79
2024/04/16 08:10:51;;;;;;;3.55;0.90;;;;;;;;;;5040846;27;93429;-80
2024/04/16 08:13:17;;;;;;;;;;;;;;;;;;5035635;27;93352;-80
2024/04/16 08:15:45;;;;;;;4.32;1.00;;;;;;;;;;5043301;27;96213;-79
2024/04/16 08:18:15;;;;;;;3.13;0.80;;;;;;;;;;5040726;27;94362;-79
2024/04/16 08:20:45;;;;;;;4.53;0.90;;;;;;;;;;5044645;27;91291;-79
2024/04/16 08:23:16;;;;;;;2.28;0.75;;;;;;;;;;5044688;27;92712;-79
2024/04/16 08:26:00;;;;;;;3.72;1.10;;;;;;;;;;5041532;27;93464;-79
2024/04/16 08:28:32;;;;;;;4.75;1.00;;;;;;;;;;5045870;27;91238;-80
2024/04/16 08:31:02;;;;;;;5.43;0.85;;;;;;;;;;5040696;27;93927;-82
2024/04/16 08:33:35;;;;;;;3.00;0.77;;;;;;;;;;5044684;27;93906;-80
2024/04/16 08:36:09;;;;;;;2.85;0.80;;;;;;;;;;5035109;27;97522;-81
2024/04/16 08:38:37;;;;;;;4.25;0.90;;;;;;;;;;5052678;27;96098;-81
2024/04/16 08:41:16;;;;;;;3.00;0.80;;;;;;;;;;5070024;27;90883;-80
2024/04/16 08:44:02;;;;;;;3.03;0.70;;;;;;;;;;5092082;27;91158;-81
2024/04/16 08:46:36;;;;;;;4.72;0.90;;;;;;;;;;5075860;27;91084;-80
2024/04/16 08:49:09;;;;;;;3.97;0.77;;;;;;;;;;5050990;27;90549;-80
2024/04/16 08:51:37;;;;;;;2.70;0.77;;;;;;;;;;5073891;27;92338;-80
2024/04/16 08:54:07;;;;;;;2.67;0.80;;;;;;;;;;5041045;27;95916;-81
2024/04/16 08:56:35;;;;;;;2.47;0.60;;;;;;;;;;5052252;27;89927;-82
2024/04/16 08:59:07;;;;;;;;;;;;;;;;;;5024044;27;93418;-80
2024/04/16 09:01:37;;;;;;;4.35;1.00;;;;;;;;;;5074652;27;91475;-82
2024/04/16 09:04:08;;;;;;;1.95;0.70;;;;;;;;;;5039888;27;97136;-80
2024/04/16 09:06:39;;;;;;;2.17;0.60;;;;;;;;;;5063444;27;91612;-80
2024/04/16 09:09:10;;;;;;;2.15;0.88;;;;;;;;;;5099797;27;91143;-79
2024/04/16 09:11:37;;;;;;;;;;;;;;;;;;5082270;27;91077;-81
2024/04/16 09:14:13;;;;;;;2.75;0.55;;;;;;;;;;5038263;27;93164;-81
2024/04/16 09:16:52;;;;;;;2.60;0.75;;;;;;;;;;5038510;27;91935;-79
2024/04/16 09:19:26;;;;;;;1.65;0.60;;;;;;;;;;5026183;27;91653;-80
2024/04/16 09:22:06;;;;;;;3.58;0.80;;;;;;;;;;5012062;27;90167;-79
2024/04/16 09:24:41;;;;;;;3.00;0.60;;;;;;;;;;5065159;27;92934;-80
2024/04/16 09:27:08;;;;;;;1.90;0.55;;;;;;;;;;5075769;27;90889;-80
2024/04/16 09:29:40;;;;;;;2.72;0.57;;;;;;;;;;5043841;27;93346;-80
2024/04/16 09:32:10;;;;;;;4.05;0.70;;;;;;;;;;5048268;27;95880;-80
2024/04/16 09:34:42;;;;;;;2.92;0.68;;;;;;;;;;5064518;27;90954;-80
2024/04/16 09:37:09;;;;;;;2.40;0.55;;;;;;;;;;5075834;27;90765;-81
2024/04/16 09:39:44;;;;;;;4.43;0.73;;;;;;;;;;5070186;27;91647;-80
2024/04/16 09:42:13;;;;;;;2.75;0.73;;;;;;;;;;5051562;27;93793;-80
2024/04/16 09:44:40;;;;;;;2.63;0.60;;;;;;;;;;5075421;27;90563;-80
2024/04/16 09:47:13;;;;;;;2.15;0.90;;;;;;;;;;5074798;27;90220;-81
2024/04/16 09:49:41;;;;;;;2.25;0.60;;;;;;;;;;5078166;27;90621;-79
2024/04/16 09:52:30;;;;;;;2.05;0.55;;;;;;;;;;5080088;27;93013;-78
2024/04/16 09:54:58;;;;;;;2.83;0.68;;;;;;;;;;5078491;27;94814;-80
2024/04/16 09:57:31;;;;;;;2.33;0.60;;;;;;;;;;5051517;27;91005;-80
2024/04/16 10:00:01;;;;;;;3.03;0.60;;;;;;;;;;5038906;27;93297;-81
2024/04/16 10:02:38;;;;;;;2.28;0.60;;;;;;;;;;5054988;27;92865;-80
2024/04/16 10:05:09;;;;;;;1.77;0.40;;;;;;;;;;5050329;27;91935;-80
2024/04/16 10:07:43;;;;;;;2.90;0.68;;;;;;;;;;5069542;27;91676;-79
2024/04/16 10:10:12;;;;;;;1.70;0.70;;;;;;;;;;5046418;27;91087;-78
2024/04/16 10:12:42;;;;;;;2.50;0.70;;;;;;;;;;5046486;27;95027;-80
2024/04/16 10:15:13;;;;;;;1.70;0.50;;;;;;;;;;5038267;27;93756;-81
2024/04/16 10:17:53;;;;;;;1.95;0.50;;;;;;;;;;5077826;27;90618;-79
2024/04/16 10:20:28;;;;;;;1.73;0.50;;;;;;;;;;5042854;27;93417;-79
2024/04/16 10:23:00;;;;;;;2.20;0.52;;;;;;;;;;5077075;27;91848;-79
2024/04/16 10:25:34;;;;;;;3.00;0.63;;;;;;;;;;5107009;27;90719;-79
2024/04/16 10:28:04;;;;;;;1.95;0.52;;;;;;;;;;5075569;27;95779;-80
2024/04/16 10:30:39;;;;;;;1.10;0.47;;;;;;;;;;5048351;27;90575;-81
2024/04/16 10:33:15;;;;;;;2.15;0.60;;;;;;;;;;5044734;27;94892;-81
2024/04/16 10:35:44;;;;;;;2.20;0.50;;;;;;;;;;5070525;27;92525;-80
2024/04/16 10:38:12;;;;;;;2.22;0.52;;;;;;;;;;5076318;27;90148;-80
2024/04/16 10:40:52;;;;;;;2.40;0.55;;;;;;;;;;5071465;27;93325;-79
2024/04/16 10:43:26;;;;;;;1.35;0.45;;;;;;;;;;5012826;27;93524;-78
2024/04/16 10:45:54;;;;;;;1.00;0.52;;;;;;;;;;5073511;27;92938;-80
2024/04/16 10:48:26;;;;;;;1.73;0.60;;;;;;;;;;5018701;27;96571;-81
2024/04/16 10:50:58;;;;;;;2.42;0.60;;;;;;;;;;5036929;27;90807;-80
2024/04/16 10:53:36;;;;;;;2.05;0.40;;;;;;;;;;5042910;27;93232;-83
2024/04/16 10:56:07;;;;;;;2.50;0.57;;;;;;;;;;5033723;27;98778;-80
2024/04/16 10:58:44;;;;;;;1.63;0.50;;;;;;;;;;5047991;27;90972;-80
2024/04/16 11:01:14;;;;;;;0.80;0.40;;;;;;;;;;5056999;27;93106;-82
2024/04/16 11:03:41;;;;;;;;;;;;;;;;;;5068765;27;91194;-80
2024/04/16 11:06:11;;;;;;;1.75;0.60;;;;;;;;;;5067007;27;99222;-80
2024/04/16 11:08:43;;;;;;;2.67;0.47;;;;;;;;;;5020914;27;92910;-80
2024/04/16 11:11:13;;;;;;;2.25;0.50;;;;;;;;;;5051775;27;96784;-80
2024/04/16 11:13:42;;;;;;;1.08;0.40;;;;;;;;;;5041763;27;97199;-81
2024/04/16 11:16:09;;;;;;;1.83;0.50;;;;;;;;;;5066571;27;91379;-79
2024/04/16 11:18:38;;;;;;;1.15;0.40;;;;;;;;;;5020662;27;90865;-80
2024/04/16 11:21:10;;;;;;;0.70;0.40;;;;;;;;;;5072109;27;92021;-80
2024/04/16 11:23:44;;;;;;;1.90;0.60;;;;;;;;;;5041754;27;93884;-80
2024/04/16 11:26:12;;;;;;;1.13;0.40;;;;;;;;;;5074779;27;90995;-80
2024/04/16 11:28:42;;;;;;;1.35;0.50;;;;;;;;;;5074614;27;92596;-80
2024/04/16 11:31:14;;;;;;;1.08;0.45;;;;;;;;;;5019229;27;94331;-80
2024/04/16 11:33:41;;;;;;;1.45;0.57;;;;;;;;;;5072665;27;91227;-81
2024/04/16 11:36:08;;;;;;;1.27;0.45;;;;;;;;;;5082824;27;93585;-80
2024/04/16 11:38:40;;;;;;;1.30;0.50;;;;;;;;;;5037373;27;90765;-80
2024/04/16 11:41:10;;;;;;;1.85;0.52;;;;;;;;;;5019275;27;91787;-80
2024/04/16 11:43:41;;;;;;;1.63;0.63;;;;;;;;;;5063476;27;90689;-80
2024/04/16 11:46:11;;;;;;;1.48;0.60;;;;;;;;;;5041775;27;91583;-79
2024/04/16 11:48:42;;;;;;;0.90;0.60;;;;;;;;;;5110565;27;91234;-78
2024/04/16 11:51:14;;;;;;;3.03;0.70;;;;;;;;;;5030762;27;93812;-80
2024/04/16 11:53:54;;;;;;;0.98;0.50;;;;;;;;;;5027142;27;90898;-80
2024/04/16 11:56:28;;;;;;;1.60;0.50;;;;;;;;;;5050697;27;91177;-80
2024/04/16 11:59:03;;;;;;;0.75;0.40;;;;;;;;;;5035363;27;90545;-80
2024/04/16 12:01:30;;;;;;;2.03;0.60;;;;;;;;;;5082000;27;93115;-80
2024/04/16 12:04:01;;;;;;;1.38;0.45;;;;;;;;;;5008793;27;93287;-80
2024/04/16 12:06:29;;;;;;;0.88;0.40;;;;;;;;;;5063037;27;91042;-79
2024/04/16 12:09:07;;;;;;;1.63;0.50;;;;;;;;;;5073131;27;91000;-78
2024/04/16 12:11:46;;;;;;;0.80;0.50;;;;;;;;;;5051999;27;93422;-79
2024/04/16 12:14:22;;;;;;;1.02;0.40;;;;;;;;;;5055738;27;90943;-78
2024/04/16 12:17:00;;;;;;;1.88;0.50;;;;;;;;;;5045139;27;94265;-79
2024/04/16 12:19:38;;;;;;;1.30;0.50;;;;;;;;;;5046154;27;89890;-79
2024/04/16 12:22:33;;;;;;;1.42;0.50;;;;;;;;;;5006806;27;101149;-80
2024/04/16 12:25:10;;;;;;;1.85;0.52;;;;;;;;;;5040464;27;93558;-80
2024/04/16 12:27:45;;;;;;;1.10;0.40;;;;;;;;;;5042590;27;93552;-79
2024/04/16 12:30:18;;;;;;;1.05;0.50;;;;;;;;;;5040366;27;95772;-80
2024/04/16 12:32:45;;;;;;;1.23;0.50;;;;;;;;;;5048007;27;93161;-78
2024/04/16 12:35:43;;;;;;;0.63;0.40;;;;;;;;;;5051573;27;91072;-78
2024/04/16 12:38:19;;;;;;;1.85;0.45;;;;;;;;;;5049046;27;95975;-80
2024/04/16 12:41:05;;;;;;;2.63;0.75;;;;;;;;;;5104600;27;93252;-80
2024/04/16 12:43:36;;;;;;;2.13;0.52;;;;;;;;;;5082143;27;93064;-78
2024/04/16 12:46:12;;;;;;;1.33;0.52;;;;;;;;;;5085708;27;98706;-82
2024/04/16 12:48:50;;;;;;;1.55;0.75;;;;;;;;;;5124692;27;90535;-79
2024/04/16 12:51:33;;;;;;;2.08;0.68;;;;;;;;;;5105326;27;94025;-80
2024/04/16 12:54:02;;;;;;;1.65;0.60;;;;;;;;;;5096786;27;95633;-82
2024/04/16 12:56:32;;;;;;;1.30;0.60;;;;;;;;;;5089540;27;91095;-81
2024/04/16 12:59:11;;;;;;;2.17;0.55;;;;;;;;;;5083551;27;94068;-79
2024/04/16 13:01:49;;;;;;;1.30;0.65;;;;;;;;;;5078902;27;94380;-82
2024/04/16 13:04:48;;;;;;;2.58;0.73;;;;;;;;;;5103279;27;90675;-82
2024/04/16 13:07:30;;;;;;;0.82;0.52;;;;;;;;;;5083881;27;92882;-82
2024/04/16 13:10:17;;;;;;;2.28;0.60;;;;;;;;;;4979137;28;92433;-85
2024/04/16 13:13:07;;;;;;;2.60;0.63;;;;;;;;;;5038043;27;92241;-82
2024/04/16 13:15:59;;;;;;;1.42;0.60;;;;;;;;;;5002486;22;90780;-81
2024/04/16 13:18:33;;;;;;;0.90;0.50;;;;;;;;;;4996150;28;91025;-80
2024/04/16 13:21:11;;;;;;;0.95;0.55;;;;;;;;;;4937298;28;93963;-80
2024/04/16 13:23:38;;;;;;;1.30;0.47;;;;;;;;;;5013372;28;91199;-81
2024/04/16 13:26:18;;;;;;;2.20;0.75;;;;;;;;;;5003986;28;91390;-82
2024/04/16 13:28:54;;;;;;;1.30;0.60;;;;;;;;;;4959955;28;94267;-80
2024/04/16 13:31:32;;;;;;;1.27;0.60;;;;;;;;;;4966207;28;90759;-82
2024/04/16 13:34:07;;;;;;;2.30;0.90;;;;;;;;;;4930377;28;96031;-81
2024/04/16 13:36:35;;;;;;;2.33;0.65;;;;;;;;;;4984170;28;91690;-81
2024/04/16 13:39:17;;;;;;;2.15;0.70;;;;;;;;;;4986394;28;90057;-81
2024/04/16 13:42:02;;;;;;;1.77;0.55;;;;;;;;;;4996869;28;94123;-82
2024/04/16 13:44:36;;;;;;;3.25;0.65;;;;;;;;;;4962565;28;91894;-81
2024/04/16 13:47:05;;;;;;;2.35;0.65;;;;;;;;;;5005396;28;92840;-82
2024/04/16 13:49:40;;;;;;;1.02;0.60;;;;;;;;;;4982001;28;95508;-81
2024/04/16 13:52:10;;;;;;;0.98;0.50;;;;;;;;;;4964243;28;91974;-81
2024/04/16 13:54:40;;;;;;;1.90;0.65;;;;;;;;;;4986676;28;91147;-80
2024/04/16 13:57:11;;;;;;;1.02;0.63;;;;;;;;;;4979609;28;91040;-81
2024/04/16 13:59:43;;;;;;;1.63;0.60;;;;;;;;;;5007582;28;90697;-81
2024/04/16 14:02:16;;;;;;;1.13;0.70;;;;;;;;;;4999093;28;95042;-81
2024/04/16 14:04:48;;;;;;;1.48;0.60;;;;;;;;;;4960187;28;93958;-79
2024/04/16 14:07:18;;;;;;;1.50;0.60;;;;;;;;;;5011734;28;90535;-82
2024/04/16 14:09:56;;;;;;;0.90;0.70;;;;;;;;;;4954543;28;92030;-81
2024/04/16 14:12:47;;;;;;;1.55;0.60;;;;;;;;;;4954857;28;93675;-82
2024/04/16 14:15:16;;;;;;;1.13;0.70;;;;;;;;;;5012209;27;91053;-81
2024/04/16 14:17:55;;;;;;;1.35;0.65;;;;;;;;;;4978979;28;93564;-81
2024/04/16 14:20:33;;;;;;;1.75;0.55;;;;;;;;;;4957112;28;90479;-81
2024/04/16 14:23:06;;;;;;;1.83;0.80;;;;;;;;;;5000884;28;93629;-83
2024/04/16 14:25:36;;;;;;;1.85;0.73;;;;;;;;;;4957502;28;91330;-80
2024/04/16 14:28:06;;;;;;;1.20;0.60;;;;;;;;;;5045798;27;90743;-80
2024/04/16 14:30:39;;;;;;;0.95;0.70;;;;;;;;;;5011410;28;92713;-79
2024/04/16 14:33:14;;;;;;;;;;;;;;;;;;5009515;28;91029;-83
2024/04/16 14:36:04;;;;;;;1.88;0.75;;;;;;;;;;4980064;28;91452;-82
2024/04/16 14:38:38;;;;;;;2.15;0.70;;;;;;;;;;4983115;28;95529;-80
2024/04/16 14:41:16;;;;;;;1.42;0.80;;;;;;;;;;4995810;28;90525;-83
2024/04/16 14:43:49;;;;;;;2.63;0.75;;;;;;;;;;5039213;27;90970;-80
2024/04/16 14:46:24;;;;;;;1.52;0.70;;;;;;;;;;5011327;28;93874;-83
2024/04/16 14:48:52;;;;;;;1.50;0.60;;;;;;;;;;5006925;27;93259;-81
2024/04/16 14:51:19;;;;;;;1.38;0.70;;;;;;;;;;5005184;28;92543;-80
2024/04/16 14:53:57;;;;;;;1.40;0.70;;;;;;;;;;4966998;28;91059;-81
2024/04/16 14:56:31;;;;;;;1.98;0.80;;;;;;;;;;4950780;28;90372;-81
2024/04/16 14:59:02;;;;;;;1.55;0.80;;;;;;;;;;5010242;28;92431;-81
2024/04/16 15:01:42;;;;;;;2.45;0.90;;;;;;;;;;5027500;28;90939;-81
2024/04/16 15:04:25;;;;;;;3.40;0.80;;;;;;;;;;5034771;27;93519;-81
2024/04/16 15:07:23;;;;;;;;;;;;;;;;;;;;;
2024/04/16 15:10:22;;;;;;;2.75;1.00;;;;;;;;;;4944606;28;92472;-81
2024/04/16 15:13:13;;;;;;;2.00;0.80;;;;;;;;;;4998328;28;92734;-82
2024/04/16 15:15:58;;;;;;;3.83;0.88;;;;;;;;;;4955167;28;91354;-81
2024/04/16 15:18:26;;;;;;;2.17;0.73;;;;;;;;;;5011285;28;91224;-81
2024/04/16 15:21:17;;;;;;;3.17;0.80;;;;;;;;;;4961976;28;94401;-82
2024/04/16 15:23:58;;;;;;;;;;;;;;;;;;4986570;28;92001;-81
2024/04/16 15:26:29;;;;;;;1.48;0.82;;;;;;;;;;4988092;28;92223;-80
2024/04/16 15:29:01;;;;;;;1.63;0.90;;;;;;;;;;4986035;28;90888;-81
2024/04/16 15:31:43;;;;;;;2.05;0.90;;;;;;;;;;4961876;28;93500;-82
2024/04/16 15:34:15;;;;;;;2.50;0.90;;;;;;;;;;4984134;28;95620;-83
2024/04/16 15:36:42;;;;;;;;;;;;;;;;;;5012693;28;92965;-81
2024/04/16 15:39:11;;;;;;;1.20;0.75;;;;;;;;;;5008988;28;90500;-81
2024/04/16 15:41:40;;;;;;;3.00;0.82;;;;;;;;;;4986513;28;93843;-82
2024/04/16 15:44:07;;;;;;;;;;;;;;;;;;4968501;28;95188;-82
2024/04/16 15:46:40;;;;;;;2.55;0.85;;;;;;;;;;4990285;28;91172;-82
2024/04/16 15:49:07;;;;;;;;;;;;;;;;;;5008048;28;93461;-81
2024/04/16 15:51:34;;;;;;;1.98;0.90;;;;;;;;;;5016981;28;91254;-81
2024/04/16 15:54:07;;;;;;;2.35;0.80;;;;;;;;;;5003777;28;98273;-82
2024/04/16 15:56:41;;;;;;;1.50;0.80;;;;;;;;;;4993365;28;95231;-82
2024/04/16 15:59:20;;;;;;;2.80;0.90;;;;;;;;;;4982915;28;91090;-80
2024/04/16 16:01:52;;;;;;;1.27;0.75;;;;;;;;;;4998115;28;97213;-81
2024/04/16 16:04:24;;;;;;;2.58;1.00;;;;;;;;;;5010890;28;91138;-81
2024/04/16 16:06:51;;;;;;;1.38;0.73;;;;;;;;;;5013204;28;91010;-81
2024/04/16 16:09:35;;;;;;;2.72;0.85;;;;;;;;;;5014034;28;94221;-82
2024/04/16 16:12:06;;;;;;;3.42;0.90;;;;;;;;;;5037967;27;91076;-81
2024/04/16 16:14:40;;;;;;;3.20;0.90;;;;;;;;;;5008880;27;91259;-82
2024/04/16 16:17:09;;;;;;;2.13;0.80;;;;;;;;;;5045441;27;94976;-80
2024/04/16 16:19:37;;;;;;;1.80;0.85;;;;;;;;;;4993920;28;90668;-81
2024/04/16 16:22:20;;;;;;;2.00;0.80;;;;;;;;;;5032337;27;95550;-81
2024/04/16 16:25:20;;;;;;;2.53;0.82;;;;;;;;;;5010399;28;91067;-82
2024/04/16 16:27:50;;;;;;;2.35;0.80;;;;;;;;;;5039705;27;91037;-81
2024/04/16 16:30:30;;;;;;;3.28;1.00;;;;;;;;;;5031262;27;93093;-83
2024/04/16 16:33:08;;;;;;;3.95;1.15;;;;;;;;;;5003428;27;90864;-81
2024/04/16 16:35:40;;;;;;;2.30;0.93;;;;;;;;;;5026999;27;91220;-81
2024/04/16 16:38:11;;;;;;;3.42;1.08;;;;;;;;;;5071794;27;93070;-80
2024/04/16 16:40:43;;;;;;;3.25;1.00;;;;;;;;;;5015761;28;90053;-80
2024/04/16 16:43:25;;;;;;;3.47;1.10;;;;;;;;;;5010333;27;93194;-81
2024/04/16 16:46:00;;;;;;;3.75;1.00;;;;;;;;;;5013799;27;93280;-81
2024/04/16 16:48:28;;;;;;;3.58;1.20;;;;;;;;;;5060050;27;93257;-81
2024/04/16 16:50:57;;;;;;;3.92;1.05;;;;;;;;;;5053152;27;93791;-82
2024/04/16 16:53:37;;;;;;;2.85;1.00;;;;;;;;;;5030605;27;94358;-82
2024/04/16 16:56:04;;;;;;;2.63;0.90;;;;;;;;;;5006944;28;95740;-81
2024/04/16 16:58:43;;;;;;;3.03;1.00;;;;;;;;;;5017138;27;91395;-82
2024/04/16 17:01:15;;;;;;;3.25;0.82;;;;;;;;;;5019234;28;91013;-81
2024/04/16 17:03:43;;;;;;;4.82;1.17;;;;;;;;;;5042387;27;91377;-81
2024/04/16 17:06:12;;;;;;;2.65;0.93;;;;;;;;;;5045284;27;90397;-81
2024/04/16 17:08:47;;;;;;;2.83;1.00;;;;;;;;;;5017893;27;91029;-80
2024/04/16 17:11:25;;;;;;;3.83;1.05;;;;;;;;;;5012432;28;91593;-81
2024/04/16 17:13:56;;;;;;;4.10;1.15;;;;;;;;;;5037173;28;96232;-80
2024/04/16 17:16:28;;;;;;;4.30;1.20;;;;;;;;;;4970125;28;91308;-80
2024/04/16 17:19:06;;;;;;;3.65;1.05;;;;;;;;;;4962538;28;94097;-81
2024/04/16 17:21:36;;;;;;;3.00;1.15;;;;;;;;;;4986445;28;90615;-78
2024/04/16 17:24:13;;;;;;;3.53;1.10;;;;;;;;;;4980982;28;97211;-81
2024/04/16 17:27:06;;;;;;;2.50;0.90;;;;;;;;;;4978654;28;93121;-82
2024/04/16 17:29:53;;;;;;;3.60;0.90;;;;;;;;;;5013247;28;90886;-80
2024/04/16 17:32:20;;;;;;;3.47;1.08;;;;;;;;;;5015154;28;90449;-81
2024/04/16 17:34:52;;;;;;;4.10;1.10;;;;;;;;;;5014446;28;93196;-81
2024/04/16 17:37:23;;;;;;;3.38;0.90;;;;;;;;;;4989449;28;91108;-81
2024/04/16 17:39:51;;;;;;;4.45;1.23;;;;;;;;;;4986890;28;94361;-81
2024/04/16 17:42:21;;;;;;;4.05;1.00;;;;;;;;;;4963532;28;90596;-81
2024/04/16 17:44:54;;;;;;;5.05;1.10;;;;;;;;;;4987606;28;93357;-82
2024/04/16 17:47:22;;;;;;;6.38;1.50;;;;;;;;;;5014944;28;92538;-82
2024/04/16 17:49:50;;;;;;;4.82;1.15;;;;;;;;;;5018678;27;91016;-81
2024/04/16 17:52:19;;;;;;;4.75;1.20;;;;;;;;;;4981694;28;90676;-83
2024/04/16 17:54:52;;;;;;;3.53;1.10;;;;;;;;;;4942632;28;91809;-81
2024/04/16 17:57:23;;;;;;;5.35;1.20;;;;;;;;;;4979984;28;90213;-80
2024/04/16 17:59:57;;;;;;;4.80;1.10;;;;;;;;;;4987055;28;90701;-83
2024/04/16 18:02:28;;;;;;;4.10;1.20;;;;;;;;;;5017172;28;94317;-82
2024/04/16 18:04:57;;;;;;;4.22;1.20;;;;;;;;;;5039506;27;93508;-81
2024/04/16 18:07:30;;;;;;;4.63;1.08;;;;;;;;;;4986479;28;93573;-82
2024/04/16 18:10:07;;;;;;;4.32;1.20;;;;;;;;;;4996794;28;90922;-83
2024/04/16 18:12:35;;;;;;;5.43;1.27;;;;;;;;;;4957290;28;91116;-83
2024/04/16 18:15:09;;;;;;;3.55;1.20;;;;;;;;;;4961540;28;91803;-81
2024/04/16 18:17:42;;;;;;;5.10;1.25;;;;;;;;;;4958815;28;91396;-81
2024/04/16 18:20:15;;;;;;;5.25;1.17;;;;;;;;;;4982943;28;93307;-81
2024/04/16 18:22:47;;;;;;;4.45;1.17;;;;;;;;;;4956831;28;93188;-83
2024/04/16 18:25:15;;;;;;;4.80;1.10;;;;;;;;;;4987132;28;90563;-80
2024/04/16 18:27:43;;;;;;;7.07;1.33;;;;;;;;;;4983414;28;92692;-81
2024/04/16 18:30:12;;;;;;;5.55;1.20;;;;;;;;;;4955972;28;93507;-80
2024/04/16 18:33:16;;;;;;;5.53;1.27;;;;;;;;;;5007519;28;93354;-80
2024/04/16 18:35:44;;;;;;;5.57;1.30;;;;;;;;;;4934573;28;92951;-82
2024/04/16 18:38:18;;;;;;;4.18;1.10;;;;;;;;;;4969147;28;91058;-81
2024/04/16 18:40:56;;;;;;;3.80;1.05;;;;;;;;;;5014091;28;90935;-81
2024/04/16 18:43:30;;;;;;;4.25;1.20;;;;;;;;;;4926915;28;92600;-83
2024/04/16 18:46:01;;;;;;;6.20;1.35;;;;;;;;;;4966567;28;90857;-81
2024/04/16 18:48:31;;;;;;;5.38;1.33;;;;;;;;;;4986333;28;92309;-82
2024/04/16 18:51:10;;;;;;;3.97;1.10;;;;;;;;;;5000224;28;91184;-82
2024/04/16 18:54:03;;;;;;;6.45;1.25;;;;;;;;;;4979003;28;94035;-82
2024/04/16 18:57:08;;;;;;;5.30;1.10;;;;;;;;;;4924057;28;98061;-82
2024/04/16 18:59:51;;;;;;;4.80;1.40;;;;;;;;;;4914406;28;92967;-80
2024/04/16 19:02:22;;;;;;;5.03;1.27;;;;;;;;;;4898143;28;92961;-81
2024/04/16 19:04:57;;;;;;;4.57;1.35;;;;;;;;;;4904149;28;93339;-81
2024/04/16 19:07:40;;;;;;;3.17;1.00;;;;;;;;;;4891062;28;92140;-83
2024/04/16 19:10:14;;;;;;;5.32;1.20;;;;;;;;;;4888331;28;97516;-81
2024/04/16 19:13:13;;;;;;;5.95;1.15;;;;;;;;;;4890102;28;117869;-83
2024/04/16 19:16:03;;;;;;;5.13;1.23;;;;;;;;;;4878014;28;91425;-82
2024/04/16 19:19:17;;;;;;;5.82;1.30;;;;;;;;;;4952519;28;95675;-83
2024/04/16 19:22:08;;;;;;;5.32;1.20;;;;;;;;;;4906555;28;93373;-83
2024/04/16 19:25:19;;;;;;;4.65;1.10;;;;;;;;;;5003464;27;93340;-84
2024/04/16 19:28:08;;;;;;;4.88;1.30;;;;;;;;;;5026431;27;91568;-82
2024/04/16 19:31:01;;;;;;;5.35;1.33;;;;;;;;;;4998835;28;91093;-82
2024/04/16 19:33:36;;;;;;;5.53;1.20;;;;;;;;;;5009604;28;93939;-79
2024/04/16 19:36:23;;;;;;;6.03;1.35;;;;;;;;;;5026222;27;96039;-80
2024/04/16 19:38:50;;;;;;;6.85;1.33;;;;;;;;;;5224272;22;93775;-83
2024/04/16 19:41:34;;;;;;;6.25;1.08;;;;;;;;;;5046862;27;90844;-86
2024/04/16 19:44:12;;;;;;;11.13;1.30;;;;;;;;;;4991268;27;91547;-84
2024/04/16 19:46:55;;;;;;;5.80;1.10;;;;;;;;;;5011985;28;94157;-84
2024/04/16 20:05:33;;;;;;;5.57;1.33;;;;;;;;;;5096712;22;94261;-84